Startpagina
METAR-TAF:

METAR-TAF

Vliegvelden :

Urmia Airport

Urmia, Iran

breedte: 37-32N, lengte: 045-05E, hoogte: 1297 m

Actueel weer

Dit bericht is 32 minuten geleden gemaakt, om 13:00 UTC
Wind 6 kt uit het noordnoordwesten
Temperatuur 34°C
Vochtigheid 26%
Druk 1012 hPa
Zicht 10 km of meer
Weinig wolken op 4000 ft
Verspreide wolken op 17000 ft

METAR: OITR 211300Z 34006KT 9999 FEW040 SCT170 34/12 Q1012

Tijdstip: 18:02 (13:32 UTC)

Verwachting

Dit bericht is 2 uur en het 2 minuten geleden gemaakt, om 11:30 UTC
Verwachting geldig van 21 om 12 UTC tot 22 om 18 UTC
Wind 8 kt uit het westnoordwesten
Zicht: 7000 m
Weinig wolken op 4000 ft
Verspreide wolken op 9000 ft
Tijdelijke
van 21 om 12 UTC tot 21 om 15 UTC
Wind 16 kt uit het oostnoordoosten

TAF: OITR 211130Z 2112/2218 30008KT 7000 FEW040 SCT090 TEMPO 2112/2115 06016KT

Waarnemingen en weersverwachtingen van meer dan 4000 vliegvelden (METAR en TAF).

De beschikbare stations zijn de gele en rode punten op de kaart.

Ga met uw muis naar het station om de naam te zien.

Klik dan om waarnemingen en weersverwachtingen te zien.

kaart wijzigen: klik op de groene knoppen met een zwart kruis om in te zoomen, op de groene knop met een streepje om uit te zoomen of op de groene pijlen voor aangrenzende kaarten.


METAR-TAF: